CPX233 Details

Departure: Sacramento International Airport (KSMF)
Arrival: Phoenix Sky Harbor International Airport (KPHX) at N/A
Route: SCTWN2 SCTWN DOSCO OAL LIDAT BTY J92 BLD PRFUM WOTRO BRUSR1
Notes:


Current Weather Information
KSMF 171653Z 16010KT 10SM CLR 23/14 A2978 RMK AO2 SLP082 T02280139
KPHX 171651Z VRB05KT 10SM FEW200 FEW250 35/14 A2984 RMK AO2 SLP083 T03500144